TGW4208 WMKK-WMKP
Flight info
| Callsign | TGW4208 |
|---|---|
| Flight time | 0h 36m |
| Altitude | 26000 |
| Route | ATIMU2D ATIMU Y506 TEPUS DCT GORVU |
| Aircraft | E190/M-SDE3GILORVW/S |
Departure
| Time | 2026-04-22 08:21 |
|---|---|
| Airport | Kuala Lumpur International Airport (WMKK) |
Arrival
| Time | 2026-04-22 08:57 |
|---|---|
| Airport | Penang International Airport (WMKP) |
| Time | Latitude | Longitude | Altitude | Speed | Heading |
|---|---|---|---|---|---|
| 2026-04-22 07:54 | 2.75070 | 101.71257 | 71 ft | 0 kts | 234° |
| 2026-04-22 08:11 | 2.75078 | 101.71268 | 64 ft | 2 kts | 244° |
| 2026-04-22 08:12 | 2.75084 | 101.71283 | 61 ft | 2 kts | 242° |
| 2026-04-22 08:12 | 2.75092 | 101.71297 | 64 ft | 2 kts | 243° |
| 2026-04-22 08:12 | 2.75101 | 101.71311 | 62 ft | 2 kts | 222° |
| 2026-04-22 08:12 | 2.75115 | 101.71319 | 65 ft | 2 kts | 186° |
| 2026-04-22 08:13 | 2.75131 | 101.71318 | 63 ft | 2 kts | 162° |
| 2026-04-22 08:13 | 2.75143 | 101.71314 | 69 ft | 1 kts | 150° |
| 2026-04-22 08:13 | 2.75145 | 101.71313 | 69 ft | 0 kts | 149° |
| 2026-04-22 08:15 | 2.75144 | 101.71314 | 69 ft | 1 kts | 147° |
| 2026-04-22 08:15 | 2.75133 | 101.71321 | 63 ft | 3 kts | 145° |
| 2026-04-22 08:16 | 2.75108 | 101.71339 | 66 ft | 6 kts | 146° |
| 2026-04-22 08:16 | 2.75068 | 101.71365 | 65 ft | 8 kts | 147° |
| 2026-04-22 08:16 | 2.75031 | 101.71407 | 70 ft | 8 kts | 106° |
| 2026-04-22 08:16 | 2.75051 | 101.71464 | 70 ft | 10 kts | 59° |
| 2026-04-22 08:17 | 2.75092 | 101.71524 | 73 ft | 12 kts | 55° |
| 2026-04-22 08:17 | 2.75141 | 101.71597 | 74 ft | 13 kts | 61° |
| 2026-04-22 08:17 | 2.75116 | 101.71678 | 74 ft | 14 kts | 142° |
| 2026-04-22 08:17 | 2.75028 | 101.71738 | 74 ft | 16 kts | 146° |
| 2026-04-22 08:18 | 2.74947 | 101.71817 | 73 ft | 17 kts | 102° |
| 2026-04-22 08:18 | 2.74999 | 101.71922 | 71 ft | 18 kts | 55° |
| 2026-04-22 08:18 | 2.75015 | 101.71944 | 70 ft | 0 kts | 55° |
| 2026-04-22 08:19 | 2.75015 | 101.71945 | 70 ft | 1 kts | 55° |
| 2026-04-22 08:19 | 2.75023 | 101.71957 | 73 ft | 4 kts | 54° |
| 2026-04-22 08:19 | 2.75045 | 101.71986 | 75 ft | 7 kts | 53° |
| 2026-04-22 08:20 | 2.75092 | 101.72019 | 75 ft | 10 kts | 12° |
| 2026-04-22 08:20 | 2.75137 | 101.72002 | 73 ft | 0 kts | 327° |
| 2026-04-22 08:20 | 2.75142 | 101.71999 | 69 ft | 12 kts | 327° |
| 2026-04-22 08:20 | 2.75459 | 101.71787 | 71 ft | 96 kts | 326° |
| 2026-04-22 08:21 | 2.76225 | 101.71277 | 113 ft | 163 kts | 326° |
| 2026-04-22 08:21 | 2.77263 | 101.70574 | 670 ft | 196 kts | 325° |
| 2026-04-22 08:21 | 2.78486 | 101.69715 | 1301 ft | 232 kts | 323° |
| 2026-04-22 08:21 | 2.79913 | 101.68766 | 2048 ft | 268 kts | 334° |
| 2026-04-22 08:22 | 2.81758 | 101.68234 | 3184 ft | 279 kts | 348° |
| 2026-04-22 08:22 | 2.83648 | 101.67688 | 4571 ft | 283 kts | 341° |
| 2026-04-22 08:22 | 2.85484 | 101.66997 | 6057 ft | 280 kts | 340° |
| 2026-04-22 08:22 | 2.87294 | 101.66307 | 7405 ft | 278 kts | 340° |
| 2026-04-22 08:23 | 2.89089 | 101.65641 | 8646 ft | 280 kts | 340° |
| 2026-04-22 08:23 | 2.90934 | 101.64978 | 9831 ft | 285 kts | 339° |
| 2026-04-22 08:23 | 2.92848 | 101.64288 | 10679 ft | 302 kts | 340° |
| 2026-04-22 08:23 | 2.94891 | 101.63558 | 11420 ft | 321 kts | 336° |
| 2026-04-22 08:24 | 2.96778 | 101.62292 | 12129 ft | 337 kts | 312° |
| 2026-04-22 08:24 | 2.98237 | 101.60423 | 13106 ft | 345 kts | 306° |
| 2026-04-22 08:24 | 2.99676 | 101.58478 | 14104 ft | 350 kts | 306° |
| 2026-04-22 08:24 | 3.01148 | 101.56505 | 15069 ft | 357 kts | 306° |
| 2026-04-22 08:25 | 3.02644 | 101.54498 | 16061 ft | 363 kts | 306° |
| 2026-04-22 08:25 | 3.04157 | 101.52454 | 16989 ft | 369 kts | 306° |
| 2026-04-22 08:25 | 3.05690 | 101.50364 | 17849 ft | 376 kts | 306° |
| 2026-04-22 08:25 | 3.07247 | 101.48233 | 18607 ft | 381 kts | 306° |
| 2026-04-22 08:26 | 3.08815 | 101.46075 | 19324 ft | 386 kts | 306° |
| 2026-04-22 08:26 | 3.10404 | 101.43883 | 20022 ft | 391 kts | 306° |
| 2026-04-22 08:26 | 3.12005 | 101.41665 | 20698 ft | 396 kts | 306° |
| 2026-04-22 08:26 | 3.13625 | 101.39413 | 21366 ft | 401 kts | 306° |
| 2026-04-22 08:27 | 3.15257 | 101.37137 | 22014 ft | 405 kts | 306° |
| 2026-04-22 08:27 | 3.17094 | 101.34967 | 22441 ft | 414 kts | 319° |
| 2026-04-22 08:27 | 3.19366 | 101.33187 | 23030 ft | 419 kts | 324° |
| 2026-04-22 08:27 | 3.21755 | 101.31473 | 23504 ft | 426 kts | 324° |
| 2026-04-22 08:28 | 3.24167 | 101.29736 | 24022 ft | 429 kts | 324° |
| 2026-04-22 08:28 | 3.26587 | 101.27969 | 24536 ft | 432 kts | 324° |
| 2026-04-22 08:28 | 3.29016 | 101.26182 | 25027 ft | 435 kts | 324° |
| 2026-04-22 08:28 | 3.31460 | 101.24382 | 25499 ft | 438 kts | 324° |
| 2026-04-22 08:29 | 3.33920 | 101.22571 | 25892 ft | 442 kts | 324° |
| 2026-04-22 08:29 | 3.36408 | 101.20740 | 25864 ft | 443 kts | 324° |
| 2026-04-22 08:29 | 3.38889 | 101.18914 | 25857 ft | 442 kts | 324° |
| 2026-04-22 08:29 | 3.41362 | 101.17098 | 25840 ft | 442 kts | 324° |
| 2026-04-22 08:30 | 3.43856 | 101.15267 | 25800 ft | 451 kts | 324° |
| 2026-04-22 08:30 | 3.46415 | 101.13386 | 25809 ft | 462 kts | 324° |
| 2026-04-22 08:30 | 3.48985 | 101.11492 | 25793 ft | 467 kts | 324° |
| 2026-04-22 08:30 | 3.51600 | 101.09567 | 25785 ft | 468 kts | 324° |
| 2026-04-22 08:31 | 3.54231 | 101.07629 | 25792 ft | 469 kts | 324° |
| 2026-04-22 08:31 | 3.56861 | 101.05696 | 25794 ft | 469 kts | 324° |
| 2026-04-22 08:31 | 3.62129 | 101.01818 | 25796 ft | 470 kts | 324° |
| 2026-04-22 08:32 | 3.64762 | 100.99881 | 25797 ft | 470 kts | 324° |
| 2026-04-22 08:32 | 3.67445 | 100.98014 | 25804 ft | 469 kts | 331° |
| 2026-04-22 08:32 | 3.70368 | 100.96569 | 25802 ft | 468 kts | 337° |
| 2026-04-22 08:32 | 3.73355 | 100.95270 | 25793 ft | 468 kts | 338° |
| 2026-04-22 08:33 | 3.76343 | 100.93965 | 25797 ft | 468 kts | 337° |
| 2026-04-22 08:33 | 3.79328 | 100.92647 | 25797 ft | 468 kts | 337° |
| 2026-04-22 08:33 | 3.82304 | 100.91329 | 25792 ft | 468 kts | 337° |
| 2026-04-22 08:33 | 3.85287 | 100.90010 | 25790 ft | 468 kts | 337° |
| 2026-04-22 08:34 | 3.88266 | 100.88690 | 25794 ft | 468 kts | 337° |
| 2026-04-22 08:34 | 3.91245 | 100.87370 | 25796 ft | 468 kts | 337° |
| 2026-04-22 08:34 | 3.94224 | 100.86048 | 25792 ft | 468 kts | 337° |
| 2026-04-22 08:34 | 3.97202 | 100.84726 | 25789 ft | 468 kts | 337° |
| 2026-04-22 08:35 | 4.00179 | 100.83404 | 25787 ft | 468 kts | 337° |
| 2026-04-22 08:35 | 4.03155 | 100.82082 | 25784 ft | 468 kts | 337° |
| 2026-04-22 08:35 | 4.06132 | 100.80759 | 25782 ft | 468 kts | 337° |
| 2026-04-22 08:35 | 4.09092 | 100.79444 | 25772 ft | 457 kts | 337° |
| 2026-04-22 08:36 | 4.11952 | 100.78175 | 25747 ft | 444 kts | 337° |
| 2026-04-22 08:36 | 4.14765 | 100.76925 | 25773 ft | 441 kts | 337° |
| 2026-04-22 08:36 | 4.17575 | 100.75679 | 25686 ft | 442 kts | 337° |
| 2026-04-22 08:36 | 4.20375 | 100.74452 | 25735 ft | 440 kts | 338° |
| 2026-04-22 08:37 | 4.23184 | 100.73232 | 25765 ft | 440 kts | 338° |
| 2026-04-22 08:37 | 4.25990 | 100.72014 | 25779 ft | 440 kts | 338° |
| 2026-04-22 08:37 | 4.28800 | 100.70791 | 25780 ft | 440 kts | 338° |
| 2026-04-22 08:37 | 4.31606 | 100.69569 | 25781 ft | 440 kts | 338° |
| 2026-04-22 08:38 | 4.34416 | 100.68345 | 25782 ft | 440 kts | 338° |
| 2026-04-22 08:38 | 4.37219 | 100.67122 | 25781 ft | 440 kts | 338° |
| 2026-04-22 08:38 | 4.40025 | 100.65899 | 25785 ft | 440 kts | 338° |
| 2026-04-22 08:38 | 4.42829 | 100.64677 | 25786 ft | 439 kts | 338° |
| 2026-04-22 08:39 | 4.45633 | 100.63454 | 25790 ft | 440 kts | 338° |
| 2026-04-22 08:39 | 4.48439 | 100.62230 | 25790 ft | 440 kts | 338° |
| 2026-04-22 08:39 | 4.51240 | 100.61008 | 25795 ft | 439 kts | 338° |
| 2026-04-22 08:39 | 4.54043 | 100.59786 | 25799 ft | 439 kts | 338° |
| 2026-04-22 08:40 | 4.56848 | 100.58562 | 25801 ft | 440 kts | 338° |
| 2026-04-22 08:40 | 4.59650 | 100.57339 | 25802 ft | 440 kts | 338° |
| 2026-04-22 08:40 | 4.62459 | 100.56114 | 25805 ft | 440 kts | 338° |
| 2026-04-22 08:40 | 4.65267 | 100.54888 | 25514 ft | 444 kts | 338° |
| 2026-04-22 08:41 | 4.68118 | 100.53645 | 24606 ft | 446 kts | 338° |
| 2026-04-22 08:41 | 4.70920 | 100.52420 | 24023 ft | 435 kts | 338° |
| 2026-04-22 08:41 | 4.73667 | 100.51222 | 23420 ft | 427 kts | 338° |
| 2026-04-22 08:41 | 4.76365 | 100.50045 | 22807 ft | 419 kts | 338° |
| 2026-04-22 08:42 | 4.79016 | 100.48888 | 22266 ft | 414 kts | 338° |
| 2026-04-22 08:42 | 4.81609 | 100.47663 | 21724 ft | 413 kts | 329° |
| 2026-04-22 08:42 | 4.83746 | 100.45759 | 21198 ft | 412 kts | 310° |
| 2026-04-22 08:42 | 4.85479 | 100.43478 | 20644 ft | 411 kts | 307° |
| 2026-04-22 08:43 | 4.87159 | 100.41176 | 20084 ft | 407 kts | 307° |
| 2026-04-22 08:43 | 4.88842 | 100.38917 | 19547 ft | 402 kts | 307° |
| 2026-04-22 08:43 | 4.90519 | 100.36694 | 19020 ft | 398 kts | 308° |
| 2026-04-22 08:43 | 4.92176 | 100.34536 | 18494 ft | 394 kts | 308° |
| 2026-04-22 08:44 | 4.93834 | 100.32370 | 17957 ft | 390 kts | 307° |
| 2026-04-22 08:44 | 4.95473 | 100.30226 | 17454 ft | 384 kts | 307° |
| 2026-04-22 08:44 | 4.97089 | 100.28107 | 16947 ft | 381 kts | 307° |
| 2026-04-22 08:44 | 4.98694 | 100.26001 | 16438 ft | 378 kts | 307° |
| 2026-04-22 08:45 | 5.00324 | 100.23945 | 15815 ft | 377 kts | 314° |
| 2026-04-22 08:45 | 5.02467 | 100.22507 | 15360 ft | 369 kts | 339° |
| 2026-04-22 08:45 | 5.04971 | 100.22087 | 14916 ft | 367 kts | 2° |
| 2026-04-22 08:45 | 5.07437 | 100.22663 | 14455 ft | 363 kts | 23° |
| 2026-04-22 08:46 | 5.09509 | 100.24034 | 13977 ft | 354 kts | 40° |
| 2026-04-22 08:46 | 5.11286 | 100.25693 | 13485 ft | 346 kts | 43° |
| 2026-04-22 08:46 | 5.13012 | 100.27334 | 13031 ft | 337 kts | 42° |
| 2026-04-22 08:46 | 5.14711 | 100.28906 | 12590 ft | 328 kts | 42° |
| 2026-04-22 08:47 | 5.16373 | 100.30434 | 12168 ft | 321 kts | 41° |
| 2026-04-22 08:47 | 5.18006 | 100.31923 | 11741 ft | 314 kts | 41° |
| 2026-04-22 08:47 | 5.19614 | 100.33382 | 11327 ft | 308 kts | 41° |
| 2026-04-22 08:47 | 5.21191 | 100.34813 | 10922 ft | 303 kts | 41° |
| 2026-04-22 08:48 | 5.22743 | 100.36219 | 10523 ft | 299 kts | 42° |
| 2026-04-22 08:48 | 5.24248 | 100.37583 | 10383 ft | 287 kts | 42° |
| 2026-04-22 08:48 | 5.25742 | 100.38936 | 9979 ft | 290 kts | 42° |
| 2026-04-22 08:48 | 5.27241 | 100.40294 | 9601 ft | 290 kts | 42° |
| 2026-04-22 08:49 | 5.28733 | 100.41646 | 9194 ft | 288 kts | 42° |
| 2026-04-22 08:49 | 5.30213 | 100.42986 | 8829 ft | 286 kts | 42° |
| 2026-04-22 08:49 | 5.31683 | 100.44316 | 8444 ft | 284 kts | 43° |
| 2026-04-22 08:49 | 5.33147 | 100.45641 | 8083 ft | 283 kts | 43° |
| 2026-04-22 08:50 | 5.34602 | 100.46957 | 7706 ft | 281 kts | 43° |
| 2026-04-22 08:50 | 5.36046 | 100.48264 | 7330 ft | 278 kts | 43° |
| 2026-04-22 08:50 | 5.37477 | 100.49565 | 6972 ft | 276 kts | 43° |
| 2026-04-22 08:50 | 5.38898 | 100.50855 | 6590 ft | 275 kts | 43° |
| 2026-04-22 08:51 | 5.40521 | 100.51847 | 6123 ft | 277 kts | 17° |
| 2026-04-22 08:51 | 5.42422 | 100.51843 | 5799 ft | 276 kts | 345° |
| 2026-04-22 08:51 | 5.44031 | 100.50833 | 5523 ft | 276 kts | 315° |
| 2026-04-22 08:51 | 5.45015 | 100.49172 | 5164 ft | 280 kts | 294° |
| 2026-04-22 08:52 | 5.45702 | 100.47363 | 4786 ft | 281 kts | 291° |
| 2026-04-22 08:52 | 5.46384 | 100.45529 | 4389 ft | 279 kts | 291° |
| 2026-04-22 08:52 | 5.46733 | 100.43632 | 3996 ft | 278 kts | 266° |
| 2026-04-22 08:52 | 5.46078 | 100.41844 | 3701 ft | 274 kts | 234° |
| 2026-04-22 08:53 | 5.44692 | 100.40572 | 3395 ft | 271 kts | 215° |
| 2026-04-22 08:53 | 5.43128 | 100.39506 | 3000 ft | 271 kts | 216° |
| 2026-04-22 08:53 | 5.41631 | 100.38369 | 2642 ft | 268 kts | 220° |
| 2026-04-22 08:53 | 5.40251 | 100.37193 | 2507 ft | 247 kts | 222° |
| 2026-04-22 08:54 | 5.38985 | 100.36068 | 2002 ft | 241 kts | 223° |
| 2026-04-22 08:54 | 5.37763 | 100.34975 | 1691 ft | 226 kts | 223° |
| 2026-04-22 08:54 | 5.36657 | 100.33980 | 1382 ft | 203 kts | 223° |
| 2026-04-22 08:54 | 5.35659 | 100.33079 | 1108 ft | 184 kts | 223° |
| 2026-04-22 08:55 | 5.34762 | 100.32266 | 922 ft | 165 kts | 224° |
| 2026-04-22 08:55 | 5.33953 | 100.31530 | 686 ft | 151 kts | 223° |
| 2026-04-22 08:55 | 5.33204 | 100.30852 | 460 ft | 138 kts | 223° |
| 2026-04-22 08:55 | 5.32512 | 100.30229 | 312 ft | 130 kts | 222° |
| 2026-04-22 08:56 | 5.31830 | 100.29616 | 212 ft | 132 kts | 224° |
| 2026-04-22 08:56 | 5.31157 | 100.28995 | 114 ft | 131 kts | 221° |
| 2026-04-22 08:56 | 5.30486 | 100.28386 | 22 ft | 125 kts | 222° |
| 2026-04-22 08:56 | 5.29942 | 100.27890 | 20 ft | 81 kts | 222° |
| 2026-04-22 08:57 | 5.29618 | 100.27597 | 18 ft | 55 kts | 223° |
| 2026-04-22 08:57 | 5.29356 | 100.27359 | 18 ft | 44 kts | 222° |
| 2026-04-22 08:57 | 5.29134 | 100.27159 | 19 ft | 38 kts | 221° |
| 2026-04-22 08:57 | 5.29092 | 100.27008 | 21 ft | 14 kts | 316° |
| 2026-04-22 08:58 | 5.29161 | 100.26939 | 18 ft | 15 kts | 312° |
| 2026-04-22 08:58 | 5.29239 | 100.26853 | 17 ft | 17 kts | 309° |
| 2026-04-22 08:58 | 5.29194 | 100.26760 | 17 ft | 17 kts | 223° |
| 2026-04-22 08:58 | 5.29100 | 100.26675 | 17 ft | 17 kts | 221° |
| 2026-04-22 08:59 | 5.29080 | 100.26629 | 17 ft | 4 kts | 289° |
| 2026-04-22 08:59 | 5.29101 | 100.26603 | 17 ft | 6 kts | 311° |
| 2026-04-22 08:59 | 5.29133 | 100.26568 | 17 ft | 0 kts | 312° |